Seiryu Maru — 7JAC — position and weather

sailwx.info

Track history (hours):
 
Tides and Currents Weather Stations Pressure Air Temp Water Temp Dewpoint Dewpoint Depression Visibility Wind Speed Wind Dir Waves Ship Positions

Seiryu Maru

Last reported at 2018-Jul-10 18:37 UTC. Time now 2018-Jul-22 04:51 UTC.
Position N 34°28' E 134°31'.
Warning: this ship's position is 11 days out of date.

Length 104 m; draft 4 m.

Type: Dredging. MMSI: 432501000.

Date/timePositionNaut miles runAvg speedWind from/ knotsBaromVisibWave heightAir tempDewpointWater temp
2018-Jul-10 18:37N 34°28' E 134°31'112.3
2018-Jul-10 18:30N 34°29' E 134°32'712.8
2018-Jul-10 17:58N 34°31' E 134°40'812.6
2018-Jul-10 17:22N 34°34' E 134°48'711.5
2018-Jul-10 16:44N 34°37' E 134°56'311.5
2018-Jul-10 16:30N 34°38' E 134°59'5 9.8
2018-Jul-10 16:00N 34°36' E 135°05'611.5
2018-Jul-10 15:30N 34°36' E 135°12'3 6.9
2018-Jul-10 15:00N 34°36' E 135°16'4 8.0
2018-Jul-10 14:30N 34°36' E 135°21'4 8.0
2018-Jul-10 14:00N 34°35' E 135°26'1 0.3
2018-Jul-10 09:51N 34°35' E 135°27'0 0.0
2018-Jul-10 09:27N 34°35' E 135°27'0 0.0
2018-Jul-10 05:52N 34°35' E 135°27'2 4.7
2018-Jul-10 05:30N 34°36' E 135°25'5 9.3
2018-Jul-10 04:59N 34°36' E 135°19'4 8.4
2018-Jul-10 04:30N 34°33' E 135°16'612.0
2018-Jul-10 04:00N 34°28' E 135°12'611.8
2018-Jul-10 03:30N 34°23' E 135°06'611.8
2018-Jul-10 03:01N 34°19' E 135°02'5 9.7
2018-Jul-10 02:30N 34°15' E 134°59'5 9.3
2018-Jul-10 02:00N 34°10' E 134°59'510.9
2018-Jul-10 01:30N 34°05' E 134°59'611.6
2018-Jul-10 00:58N 33°59' E 134°58'  
Track history (hours):
 
Tides and Currents Weather Stations Pressure Air Temp Water Temp Dewpoint Dewpoint Depression Visibility Wind Speed Wind Dir Waves Ship Positions

Seiryu Maru

Last reported at 2018-Jul-10 18:37 UTC. Time now 2018-Jul-22 04:51 UTC.
Position N 34°28' E 134°31'.
Warning: this ship's position is 11 days out of date.

Length 104 m; draft 4 m.

Type: Dredging. MMSI: 432501000.

Date/timePositionNaut miles runAvg speedWind from/ knotsBaromVisibWave heightAir tempDewpointWater temp
2018-Jul-10 18:37N 34°28' E 134°31'112.3
2018-Jul-10 18:30N 34°29' E 134°32'712.8
2018-Jul-10 17:58N 34°31' E 134°40'812.6
2018-Jul-10 17:22N 34°34' E 134°48'711.5
2018-Jul-10 16:44N 34°37' E 134°56'311.5
2018-Jul-10 16:30N 34°38' E 134°59'5 9.8
2018-Jul-10 16:00N 34°36' E 135°05'611.5
2018-Jul-10 15:30N 34°36' E 135°12'3 6.9
2018-Jul-10 15:00N 34°36' E 135°16'4 8.0
2018-Jul-10 14:30N 34°36' E 135°21'4 8.0
2018-Jul-10 14:00N 34°35' E 135°26'1 0.3
2018-Jul-10 09:51N 34°35' E 135°27'0 0.0
2018-Jul-10 09:27N 34°35' E 135°27'0 0.0
2018-Jul-10 05:52N 34°35' E 135°27'2 4.7
2018-Jul-10 05:30N 34°36' E 135°25'5 9.3
2018-Jul-10 04:59N 34°36' E 135°19'4 8.4
2018-Jul-10 04:30N 34°33' E 135°16'612.0
2018-Jul-10 04:00N 34°28' E 135°12'611.8
2018-Jul-10 03:30N 34°23' E 135°06'611.8
2018-Jul-10 03:01N 34°19' E 135°02'5 9.7
2018-Jul-10 02:30N 34°15' E 134°59'5 9.3
2018-Jul-10 02:00N 34°10' E 134°59'510.9
2018-Jul-10 01:30N 34°05' E 134°59'611.6
2018-Jul-10 00:58N 33°59' E 134°58'  

Dump ship's entire track history